createdAt,value
2018-08-23T00:00:43.395Z,6.33
2018-08-23T00:03:17.464Z,8.83
2018-08-23T00:05:51.604Z,7.27
2018-08-23T00:08:20.765Z,7.43
2018-08-23T00:10:50.211Z,11.23
2018-08-23T00:13:19.498Z,9.40
2018-08-23T00:15:48.371Z,8.93
2018-08-23T00:18:17.159Z,6.40
2018-08-23T00:20:45.971Z,9.90
2018-08-23T00:23:14.803Z,5.30
2018-08-23T00:25:43.594Z,6.07
2018-08-23T00:28:12.487Z,6.10
2018-08-23T00:30:42.967Z,7.60
2018-08-23T00:33:11.839Z,4.57
2018-08-23T00:35:40.626Z,7.87
2018-08-23T00:38:09.438Z,4.50
2018-08-23T00:40:42.834Z,5.83
2018-08-23T00:43:13.352Z,9.17
2018-08-23T00:45:42.235Z,7.27
2018-08-23T00:48:11.442Z,5.47
2018-08-23T00:50:46.762Z,8.53
2018-08-23T00:53:15.871Z,8.33
2018-08-23T00:55:44.674Z,10.80
2018-08-23T00:58:13.503Z,13.00
2018-08-23T01:00:43.931Z,8.60
2018-08-23T01:03:12.714Z,7.03
2018-08-23T01:05:41.579Z,13.33
2018-08-23T01:08:10.420Z,9.87
2018-08-23T01:10:39.943Z,10.10
2018-08-23T01:13:08.777Z,19.80
2018-08-23T01:15:37.599Z,10.23
2018-08-23T01:18:11.557Z,12.53
2018-08-23T01:20:41.515Z,9.87
2018-08-23T01:23:10.299Z,8.30
2018-08-23T01:25:40.448Z,12.30
2018-08-23T01:28:09.534Z,10.47
2018-08-23T01:30:38.956Z,10.90
2018-08-23T01:33:10.055Z,11.57
2018-08-23T01:35:39.925Z,11.03
2018-08-23T01:38:08.758Z,12.57
2018-08-23T01:40:37.589Z,10.23
2018-08-23T01:43:06.438Z,9.30
2018-08-23T01:45:35.328Z,9.47
2018-08-23T01:48:04.457Z,15.63
2018-08-23T01:50:33.332Z,12.23
2018-08-23T01:53:02.136Z,10.57
2018-08-23T01:55:31.079Z,10.70
2018-08-23T01:57:59.949Z,13.70
2018-08-23T02:00:32.916Z,11.63
2018-08-23T02:03:02.518Z,12.97
2018-08-23T02:05:31.374Z,11.40
2018-08-23T02:08:00.226Z,12.53
2018-08-23T02:10:29.107Z,14.90
2018-08-23T02:12:58.599Z,15.03
2018-08-23T02:15:35.390Z,15.07
2018-08-23T02:18:04.576Z,13.63
2018-08-23T02:20:33.467Z,9.47
2018-08-23T02:23:04.578Z,12.40
2018-08-23T02:25:33.658Z,10.63
2018-08-23T02:28:03.722Z,10.23
2018-08-23T02:30:41.237Z,11.20
2018-08-23T02:33:11.235Z,9.43
2018-08-23T02:35:40.547Z,8.80
2018-08-23T02:38:09.663Z,14.90
2018-08-23T02:40:39.350Z,9.40
2018-08-23T02:43:08.194Z,14.63
2018-08-23T02:45:42.400Z,10.20
2018-08-23T02:48:11.208Z,10.10
2018-08-23T02:50:40.056Z,12.37
2018-08-23T02:53:19.621Z,8.93
2018-08-23T02:55:52.668Z,9.73
2018-08-23T02:58:22.790Z,7.47
2018-08-23T03:00:51.641Z,11.30
2018-08-23T03:03:20.583Z,7.20
2018-08-23T03:05:49.381Z,6.43
2018-08-23T03:08:22.659Z,10.67
2018-08-23T03:10:51.502Z,9.30
2018-08-23T03:13:24.186Z,5.80
2018-08-23T03:15:53.076Z,8.47
2018-08-23T03:18:21.869Z,10.87
2018-08-23T03:20:55.159Z,10.70
2018-08-23T03:23:23.951Z,10.77
2018-08-23T03:25:52.796Z,8.47
2018-08-23T03:28:21.605Z,13.73
2018-08-23T03:30:58.381Z,8.20
2018-08-23T03:33:27.507Z,8.23
2018-08-23T03:35:56.322Z,12.97
2018-08-23T03:38:25.131Z,10.03
2018-08-23T03:40:53.989Z,8.37
2018-08-23T03:43:22.836Z,10.97
2018-08-23T03:45:51.655Z,10.63
2018-08-23T03:48:20.496Z,10.10
2018-08-23T03:50:53.072Z,10.93
2018-08-23T03:53:22.475Z,10.70
2018-08-23T03:55:56.852Z,7.87
2018-08-23T03:58:25.678Z,6.37
2018-08-23T04:01:01.447Z,7.90
2018-08-23T04:03:30.411Z,10.97
2018-08-23T04:06:04.702Z,8.07
2018-08-23T04:08:33.530Z,12.50
2018-08-23T04:11:02.409Z,10.17
2018-08-23T04:13:31.223Z,6.50
2018-08-23T04:16:00.008Z,6.17
2018-08-23T04:18:28.831Z,7.77
2018-08-23T04:20:58.512Z,6.03
2018-08-23T04:23:27.304Z,7.83
2018-08-23T04:25:56.086Z,8.67
2018-08-23T04:28:24.934Z,6.10
2018-08-23T04:30:53.774Z,9.73
2018-08-23T04:33:22.589Z,4.57
2018-08-23T04:35:51.390Z,7.70
2018-08-23T04:38:20.222Z,6.30
2018-08-23T04:41:03.363Z,5.33
2018-08-23T04:43:32.159Z,8.47
2018-08-23T04:46:02.952Z,7.30
2018-08-23T04:48:31.759Z,5.83
2018-08-23T04:51:00.626Z,6.40
2018-08-23T04:53:29.470Z,11.70
2018-08-23T04:55:58.276Z,11.23
2018-08-23T04:58:27.079Z,6.30
2018-08-23T05:00:55.915Z,8.53
2018-08-23T05:03:24.753Z,5.60
2018-08-23T05:05:53.544Z,10.67
2018-08-23T05:08:22.342Z,9.53
2018-08-23T05:10:51.270Z,8.47
2018-08-23T05:13:20.216Z,9.47
2018-08-23T05:15:49.416Z,11.37
2018-08-23T05:18:18.535Z,12.83
2018-08-23T05:20:47.381Z,10.73
2018-08-23T05:23:16.276Z,9.07
2018-08-23T05:25:45.051Z,8.20
2018-08-23T05:28:21.094Z,10.20
2018-08-23T05:30:50.034Z,11.40
2018-08-23T05:33:20.962Z,9.80
2018-08-23T05:35:49.866Z,7.93
2018-08-23T05:38:19.523Z,8.20
2018-08-23T05:40:53.367Z,10.60
2018-08-23T05:43:22.555Z,10.80
2018-08-23T05:45:52.776Z,11.47
2018-08-23T05:48:31.939Z,7.77
2018-08-23T05:51:05.069Z,10.87
2018-08-23T05:53:38.196Z,9.07
2018-08-23T05:56:07.454Z,12.10
2018-08-23T05:58:36.240Z,9.33
2018-08-23T06:01:06.091Z,17.07
2018-08-23T06:03:36.555Z,9.03
2018-08-23T06:06:05.379Z,11.33
2018-08-23T06:08:34.209Z,6.60
2018-08-23T06:11:05.938Z,14.53
2018-08-23T06:13:34.806Z,8.00
2018-08-23T06:16:03.647Z,6.20
2018-08-23T06:18:32.499Z,15.00
2018-08-23T06:21:01.327Z,8.90
2018-08-23T06:24:04.680Z,9.90
2018-08-23T06:26:40.296Z,9.50
2018-08-23T06:29:11.399Z,10.80
2018-08-23T06:31:44.680Z,12.03
2018-08-23T06:34:13.486Z,10.00
2018-08-23T06:36:45.255Z,13.73
2018-08-23T06:39:14.116Z,11.43
2018-08-23T06:41:42.932Z,7.33
2018-08-23T06:44:12.094Z,11.03
2018-08-23T06:46:40.859Z,8.93
2018-08-23T06:49:09.897Z,5.37
2018-08-23T06:51:38.716Z,7.80
2018-08-23T06:54:07.511Z,7.80
2018-08-23T06:56:37.675Z,10.60
2018-08-23T06:59:07.001Z,8.93
2018-08-23T07:01:41.148Z,8.60
2018-08-23T07:04:12.793Z,7.33
2018-08-23T07:06:41.919Z,11.93
2018-08-23T07:09:18.239Z,6.43
2018-08-23T07:11:47.176Z,8.63
2018-08-23T07:14:17.986Z,8.93
2018-08-23T07:16:48.476Z,9.00
2018-08-23T07:19:23.968Z,11.33
2018-08-23T07:21:56.881Z,8.63
2018-08-23T07:24:35.566Z,10.70
2018-08-23T07:27:04.839Z,6.10
2018-08-23T07:29:34.192Z,8.73
2018-08-23T07:32:05.615Z,6.27
2018-08-23T07:34:34.686Z,6.00
2018-08-23T07:37:08.781Z,9.53
2018-08-23T07:39:37.607Z,8.60
2018-08-23T07:42:06.451Z,4.00
2018-08-23T07:44:35.183Z,9.23
2018-08-23T07:47:03.956Z,7.83
2018-08-23T07:49:32.727Z,6.33
2018-08-23T07:52:01.590Z,8.33
2018-08-23T07:54:30.511Z,4.70
2018-08-23T07:56:59.334Z,5.10
2018-08-23T07:59:28.524Z,6.30
2018-08-23T08:01:57.344Z,8.87
2018-08-23T08:04:27.256Z,8.23
2018-08-23T08:06:56.082Z,8.30
2018-08-23T08:09:25.451Z,6.73
2018-08-23T08:12:00.299Z,8.07
2018-08-23T08:14:38.295Z,8.10
2018-08-23T08:17:07.251Z,6.83
2018-08-23T08:19:36.489Z,7.77
2018-08-23T08:22:05.746Z,9.77
2018-08-23T08:24:34.751Z,7.97
2018-08-23T08:27:03.630Z,10.47
2018-08-23T08:29:38.381Z,7.07
2018-08-23T08:32:07.780Z,8.70
2018-08-23T08:34:38.729Z,9.60
2018-08-23T08:37:07.531Z,11.73
2018-08-23T08:39:36.378Z,8.30
2018-08-23T08:42:05.198Z,10.03
2018-08-23T08:44:34.003Z,8.63
2018-08-23T08:47:02.811Z,10.43
2018-08-23T08:49:32.842Z,11.20
2018-08-23T08:52:01.708Z,15.93
2018-08-23T08:54:30.523Z,7.73
2018-08-23T08:56:59.393Z,6.40
2018-08-23T08:59:30.258Z,7.37
2018-08-23T09:01:59.325Z,12.47
2018-08-23T09:04:33.551Z,9.50
2018-08-23T09:07:02.365Z,12.33
2018-08-23T09:09:32.704Z,10.07
2018-08-23T09:12:04.328Z,10.40
2018-08-23T09:14:33.411Z,10.97
2018-08-23T09:17:09.276Z,10.17
2018-08-23T09:19:43.688Z,7.30
2018-08-23T09:22:17.716Z,5.63
2018-08-23T09:24:46.534Z,8.33
2018-08-23T09:27:16.353Z,7.40
2018-08-23T09:29:45.323Z,6.87
2018-08-23T09:32:30.407Z,7.13
2018-08-23T09:35:02.233Z,8.87
2018-08-23T09:37:36.873Z,7.60
2018-08-23T09:40:06.104Z,7.10
2018-08-23T09:42:35.971Z,8.10
2018-08-23T09:45:13.267Z,10.83
2018-08-23T09:47:42.341Z,11.10
2018-08-23T09:50:11.212Z,9.93
2018-08-23T09:52:41.793Z,12.77
2018-08-23T09:55:13.624Z,7.63
2018-08-23T09:57:42.868Z,5.37
2018-08-23T10:00:12.814Z,9.30
2018-08-23T10:02:46.775Z,7.37
2018-08-23T10:05:20.911Z,8.47
2018-08-23T10:07:54.951Z,9.93
2018-08-23T10:10:29.131Z,11.27
2018-08-23T10:13:03.250Z,8.37
2018-08-23T10:17:43.849Z,6.97
2018-08-23T10:20:18.099Z,12.83
2018-08-23T10:23:49.567Z,5.47
2018-08-23T10:26:29.433Z,5.70
2018-08-23T10:28:58.370Z,6.27
2018-08-23T10:31:27.262Z,5.90
2018-08-23T10:33:56.267Z,8.97
2018-08-23T10:36:25.075Z,10.43
2018-08-23T10:38:53.925Z,7.20
2018-08-23T10:41:22.699Z,8.77
2018-08-23T10:43:52.000Z,11.47
2018-08-23T10:46:20.871Z,7.97
2018-08-23T10:48:49.682Z,10.30
2018-08-23T10:51:18.447Z,6.60
2018-08-23T10:53:47.223Z,12.03
2018-08-23T10:56:16.018Z,5.27
2018-08-23T10:58:44.839Z,4.07
2018-08-23T11:01:13.599Z,4.87
2018-08-23T11:03:42.342Z,6.80
2018-08-23T11:06:11.155Z,5.17
2018-08-23T11:08:39.991Z,5.50
2018-08-23T11:11:14.076Z,2.20
2018-08-23T11:13:48.102Z,3.53
2018-08-23T11:16:22.207Z,5.23
2018-08-23T11:18:56.520Z,2.43
2018-08-23T11:21:25.316Z,3.70
2018-08-23T11:23:54.255Z,4.20
2018-08-23T11:26:24.532Z,6.53
2018-08-23T11:28:53.349Z,5.07
2018-08-23T11:31:27.363Z,4.03
2018-08-23T11:33:56.167Z,2.60
2018-08-23T11:36:24.978Z,3.50
2018-08-23T11:38:53.854Z,5.33
2018-08-23T11:41:22.643Z,5.03
2018-08-23T11:43:51.435Z,3.73
2018-08-23T11:46:21.442Z,5.73
2018-08-23T11:48:50.451Z,5.87
2018-08-23T11:51:19.620Z,1.73
2018-08-23T11:53:48.524Z,2.87
2018-08-23T11:56:17.351Z,3.37
2018-08-23T11:58:46.193Z,2.23
2018-08-23T12:01:16.384Z,2.93
2018-08-23T12:03:45.710Z,2.33
2018-08-23T12:06:15.738Z,2.13
2018-08-23T12:08:44.709Z,0.97
2018-08-23T12:11:13.514Z,3.47
2018-08-23T12:13:44.827Z,2.40
2018-08-23T12:16:13.675Z,1.40
2018-08-23T12:18:42.506Z,1.30
2018-08-23T12:21:11.314Z,2.40
2018-08-23T12:23:40.089Z,1.43
2018-08-23T12:26:08.940Z,1.27
2018-08-23T12:28:42.993Z,1.10
2018-08-23T12:31:11.793Z,2.33
2018-08-23T12:33:40.536Z,1.20
2018-08-23T12:36:09.810Z,1.23
2018-08-23T12:38:43.958Z,5.93
2018-08-23T12:43:23.902Z,1.77
2018-08-23T12:45:52.781Z,1.00
2018-08-23T12:48:21.584Z,1.27
2018-08-23T12:50:50.384Z,1.87
2018-08-23T12:53:19.213Z,2.27
2018-08-23T12:55:48.063Z,1.90
2018-08-23T12:58:16.932Z,2.60
2018-08-23T13:00:45.927Z,2.07
2018-08-23T13:03:14.933Z,1.13
2018-08-23T13:05:43.830Z,3.10
2018-08-23T13:08:12.768Z,4.13
2018-08-23T13:10:41.596Z,4.20
2018-08-23T13:13:10.411Z,8.57
2018-08-23T13:15:39.322Z,1.80
2018-08-23T13:18:08.168Z,2.90
2018-08-23T13:20:37.002Z,1.17
2018-08-23T13:23:05.761Z,1.83
2018-08-23T13:25:34.673Z,1.77
2018-08-23T13:28:03.519Z,1.53
2018-08-23T13:30:32.289Z,3.33
2018-08-23T13:33:01.216Z,2.90
2018-08-23T13:35:30.078Z,5.40
2018-08-23T13:37:58.816Z,5.73
2018-08-23T13:40:27.595Z,5.10
2018-08-23T13:42:56.372Z,2.97
2018-08-23T13:45:25.186Z,3.73
2018-08-23T13:47:54.084Z,1.90
2018-08-23T13:50:23.014Z,4.00
2018-08-23T13:52:51.787Z,1.73
2018-08-23T13:55:20.595Z,1.73
2018-08-23T13:57:49.439Z,3.90
2018-08-23T14:00:48.895Z,2.70
2018-08-23T14:03:17.699Z,3.17
2018-08-23T14:05:46.500Z,2.23
2018-08-23T14:08:15.312Z,3.73
2018-08-23T14:10:44.095Z,3.10
2018-08-23T14:13:12.905Z,2.20
2018-08-23T14:15:47.054Z,3.00
2018-08-23T14:18:15.863Z,4.50
2018-08-23T14:20:44.644Z,2.97
2018-08-23T14:23:13.492Z,2.60
2018-08-23T14:25:42.243Z,4.30
2018-08-23T14:28:11.035Z,2.13
2018-08-23T14:30:39.807Z,3.17
2018-08-23T14:33:08.725Z,3.50
2018-08-23T14:35:37.507Z,1.87
2018-08-23T14:38:06.422Z,4.37
2018-08-23T14:40:35.864Z,2.13
2018-08-23T14:43:04.653Z,2.43
2018-08-23T14:45:34.163Z,3.00
2018-08-23T14:48:08.380Z,2.40
2018-08-23T14:50:37.213Z,3.50
2018-08-23T14:53:06.650Z,3.87
2018-08-23T14:55:40.764Z,2.80
2018-08-23T14:58:10.509Z,2.63
2018-08-23T15:00:39.347Z,2.00
2018-08-23T15:03:08.247Z,4.43
2018-08-23T15:05:37.023Z,7.40
2018-08-23T15:08:05.935Z,2.97
2018-08-23T15:10:34.753Z,3.03
2018-08-23T15:13:03.649Z,5.70
2018-08-23T15:15:37.755Z,8.73
2018-08-23T15:18:06.646Z,6.47
2018-08-23T15:20:35.605Z,6.30
2018-08-23T15:23:04.483Z,4.73
2018-08-23T15:25:33.267Z,7.17
2018-08-23T15:28:02.120Z,6.93
2018-08-23T15:30:30.898Z,4.17
2018-08-23T15:32:59.761Z,6.10
2018-08-23T15:35:28.579Z,6.03
2018-08-23T15:37:57.750Z,5.43
2018-08-23T15:40:26.979Z,4.40
2018-08-23T15:42:55.906Z,6.90
2018-08-23T15:45:24.832Z,6.53
2018-08-23T15:47:53.638Z,5.33
2018-08-23T15:50:23.306Z,2.87
2018-08-23T15:52:52.905Z,5.57
2018-08-23T15:55:22.192Z,4.00
2018-08-23T15:57:51.152Z,6.93
2018-08-23T16:00:20.008Z,4.53
2018-08-23T16:02:49.340Z,6.50
2018-08-23T16:05:22.482Z,7.03
2018-08-23T16:07:51.239Z,4.13
2018-08-23T16:10:20.104Z,13.87
2018-08-23T16:12:49.271Z,9.63
2018-08-23T16:15:22.362Z,10.43
2018-08-23T16:17:56.378Z,7.63
2018-08-23T16:20:30.611Z,3.37
2018-08-23T16:22:59.444Z,3.87
2018-08-23T16:25:28.333Z,7.57
2018-08-23T16:27:57.388Z,4.40
2018-08-23T16:30:26.572Z,4.27
2018-08-23T16:32:55.451Z,6.70
2018-08-23T16:35:24.267Z,7.77
2018-08-23T16:37:53.026Z,3.27
2018-08-23T16:40:30.685Z,14.60
2018-08-23T16:43:00.388Z,5.73
2018-08-23T16:45:29.182Z,2.77
2018-08-23T16:47:57.992Z,7.83
2018-08-23T16:50:27.504Z,10.33
2018-08-23T16:52:56.276Z,8.03
2018-08-23T16:55:25.114Z,6.07
2018-08-23T16:57:53.893Z,14.23
2018-08-23T17:00:22.707Z,7.10
2018-08-23T17:02:51.588Z,4.20
2018-08-23T17:05:20.427Z,6.77
2018-08-23T17:07:49.192Z,6.57
2018-08-23T17:10:18.111Z,2.87
2018-08-23T17:12:46.844Z,10.27
2018-08-23T17:15:16.413Z,4.20
2018-08-23T17:17:49.456Z,10.07
2018-08-23T17:20:18.376Z,7.23
2018-08-23T17:22:47.180Z,5.93
2018-08-23T17:25:16.119Z,8.10
2018-08-23T17:27:44.858Z,9.50
2018-08-23T17:30:13.699Z,16.97
2018-08-23T17:32:42.471Z,5.27
2018-08-23T17:35:11.280Z,9.33
2018-08-23T17:37:40.052Z,5.30
2018-08-23T17:40:09.598Z,10.93
2018-08-23T17:42:42.206Z,4.93
2018-08-23T17:45:12.843Z,8.80
2018-08-23T17:47:41.684Z,9.97
2018-08-23T17:50:10.576Z,5.40
2018-08-23T17:52:39.379Z,7.40
2018-08-23T17:55:08.195Z,9.20
2018-08-23T17:57:36.987Z,5.63
2018-08-23T18:00:05.816Z,7.20
2018-08-23T18:02:34.632Z,10.00
2018-08-23T18:05:03.872Z,9.20
2018-08-23T18:07:32.859Z,9.20
2018-08-23T18:10:01.691Z,7.50
2018-08-23T18:12:30.541Z,12.80
2018-08-23T18:14:59.451Z,5.07
2018-08-23T18:17:28.282Z,10.37
2018-08-23T18:19:57.134Z,8.47
2018-08-23T18:22:25.966Z,3.17
2018-08-23T18:24:57.944Z,5.17
2018-08-23T18:27:28.151Z,8.53
2018-08-23T18:29:59.528Z,8.30
2018-08-23T18:32:29.602Z,5.77
2018-08-23T18:34:58.570Z,11.13
2018-08-23T18:37:27.408Z,8.57
2018-08-23T18:39:56.271Z,7.30
2018-08-23T18:42:25.088Z,5.07
2018-08-23T18:44:53.931Z,10.27
2018-08-23T18:47:22.779Z,10.27
2018-08-23T18:49:51.571Z,13.67
2018-08-23T18:52:20.387Z,6.87
2018-08-23T18:54:49.251Z,8.90
2018-08-23T18:57:18.116Z,8.77
2018-08-23T18:59:47.377Z,14.40
2018-08-23T19:02:16.199Z,7.30
2018-08-23T19:04:45.050Z,7.37
2018-08-23T19:07:19.310Z,12.63
2018-08-23T19:09:48.524Z,12.13
2018-08-23T19:12:17.472Z,9.93
2018-08-23T19:14:46.317Z,10.23
2018-08-23T19:17:20.563Z,9.50
2018-08-23T19:19:49.397Z,11.00
2018-08-23T19:22:18.212Z,10.67
2018-08-23T19:24:47.064Z,8.13
2018-08-23T19:27:15.978Z,11.17
2018-08-23T19:29:44.779Z,3.47
2018-08-23T19:32:13.917Z,2.67
2018-08-23T19:34:42.647Z,4.50
2018-08-23T19:37:11.501Z,8.33
2018-08-23T19:39:40.608Z,4.83
2018-08-23T19:42:09.495Z,9.80
2018-08-23T19:44:43.774Z,3.13
2018-08-23T19:47:18.006Z,3.67
2018-08-23T19:49:54.458Z,6.47
2018-08-23T19:52:23.279Z,2.93
2018-08-23T19:54:52.568Z,4.87
2018-08-23T19:57:21.511Z,9.23
2018-08-23T19:59:50.299Z,12.30
2018-08-23T20:02:19.124Z,8.57
2018-08-23T20:04:47.976Z,9.60
2018-08-23T20:07:16.783Z,8.03
2018-08-23T20:09:45.653Z,8.37
2018-08-23T20:12:14.479Z,6.53
2018-08-23T20:14:43.275Z,8.90
2018-08-23T20:17:12.132Z,6.07
2018-08-23T20:19:40.894Z,9.90
2018-08-23T20:22:09.789Z,10.93
2018-08-23T20:24:38.564Z,8.23
2018-08-23T20:27:07.339Z,8.03
2018-08-23T20:29:36.125Z,8.47
2018-08-23T20:32:04.933Z,8.90
2018-08-23T20:34:33.758Z,13.50
2018-08-23T20:37:02.565Z,8.03
2018-08-23T20:39:31.402Z,9.83
2018-08-23T20:42:00.161Z,9.27
2018-08-23T20:44:29.006Z,10.40
2018-08-23T20:46:57.850Z,8.40
2018-08-23T20:49:26.604Z,8.80
2018-08-23T20:51:55.411Z,9.80
2018-08-23T20:54:24.177Z,10.10
2018-08-23T20:56:52.926Z,7.93
2018-08-23T20:59:21.716Z,8.10
2018-08-23T21:01:50.567Z,9.63
2018-08-23T21:04:19.449Z,7.67
2018-08-23T21:06:48.148Z,9.20
2018-08-23T21:09:16.941Z,9.20
2018-08-23T21:11:45.748Z,8.03
2018-08-23T21:14:14.561Z,8.77
2018-08-23T21:16:43.351Z,10.80
2018-08-23T21:19:12.200Z,9.97
2018-08-23T21:21:40.977Z,8.10
2018-08-23T21:24:09.781Z,5.67
2018-08-23T21:26:38.565Z,7.57
2018-08-23T21:29:07.340Z,6.53
2018-08-23T21:31:36.117Z,5.60
2018-08-23T21:34:04.964Z,6.07
2018-08-23T21:36:33.703Z,6.57
2018-08-23T21:39:02.660Z,6.87
2018-08-23T21:41:31.467Z,8.73
2018-08-23T21:44:00.244Z,6.27
2018-08-23T21:46:29.075Z,9.63
2018-08-23T21:48:57.990Z,8.10
2018-08-23T21:51:26.811Z,9.90
2018-08-23T21:53:55.596Z,9.73
2018-08-23T21:56:24.383Z,7.33
2018-08-23T21:58:53.213Z,10.43
2018-08-23T22:01:22.360Z,10.43
2018-08-23T22:03:51.263Z,7.73
2018-08-23T22:06:20.010Z,7.70
2018-08-23T22:08:48.851Z,5.63
2018-08-23T22:11:17.631Z,8.67
2018-08-23T22:13:46.407Z,4.93
2018-08-23T22:16:15.180Z,6.40
2018-08-23T22:18:44.000Z,6.97
2018-08-23T22:21:12.756Z,5.73
2018-08-23T22:23:41.575Z,4.43
2018-08-23T22:26:10.328Z,4.90
2018-08-23T22:28:39.116Z,5.37
2018-08-23T22:31:07.944Z,4.27
2018-08-23T22:33:36.703Z,4.80
2018-08-23T22:36:05.492Z,3.13
2018-08-23T22:38:34.275Z,3.80
2018-08-23T22:41:03.105Z,5.23
2018-08-23T22:43:31.911Z,5.33
2018-08-23T22:46:00.743Z,6.50
2018-08-23T22:48:29.579Z,5.47
2018-08-23T22:50:58.359Z,3.63
2018-08-23T22:53:27.155Z,3.57
2018-08-23T22:55:56.104Z,4.27
2018-08-23T22:58:24.766Z,3.73
2018-08-23T23:00:53.581Z,3.37
2018-08-23T23:03:27.686Z,5.20
2018-08-23T23:05:56.534Z,4.57
2018-08-23T23:08:25.356Z,3.87
2018-08-23T23:10:54.147Z,6.40
2018-08-23T23:13:22.955Z,5.70
2018-08-23T23:15:51.783Z,5.63
2018-08-23T23:18:20.698Z,5.80
2018-08-23T23:20:49.533Z,7.03
2018-08-23T23:23:18.322Z,4.97
2018-08-23T23:25:47.157Z,3.40
2018-08-23T23:28:15.939Z,5.47
2018-08-23T23:30:44.769Z,6.13
2018-08-23T23:33:13.555Z,5.17
2018-08-23T23:35:42.369Z,6.70
2018-08-23T23:38:11.132Z,5.70
2018-08-23T23:40:39.923Z,8.03
2018-08-23T23:43:08.763Z,6.73
2018-08-23T23:45:37.564Z,4.77
2018-08-23T23:48:06.351Z,6.23
2018-08-23T23:50:35.128Z,5.70
2018-08-23T23:53:03.941Z,6.63
2018-08-23T23:55:32.761Z,5.80
2018-08-23T23:58:01.572Z,6.70
